Uruguaiana, Brazil
Current Conditions -  °F | °C
As of 4:00 PM on Saturday 25 Oct 2014 (Local Time) from SBUG Reporting Station
Clear Clear  
Wind Chill: 86°   Ceiling: Unl
Heat Index: 87°   Visibility: 6mi
Dew Point: 63°   Wind: 7mph
Humidity: 45%   Direction: 100°E
Pressure: 29.88"   Gusts: NA
Location:  29.77°S, 57.09°W
Report Text: SBUG 251800Z 10006KT CAVOK 30/17 Q1012
Loading
Personal Weather Stations






























Interactive Weather Map
Tropical Storm Tracking
New forecast layout! Learn more

10-Day Weather Forecast

Advertisements
Track Severe Weather on mobile